createdAt,value
2018-08-03T00:00:51.671Z,21.99
2018-08-03T00:05:56.590Z,22.09
2018-08-03T00:11:01.383Z,21.91
2018-08-03T00:16:06.257Z,21.83
2018-08-03T00:21:11.149Z,21.81
2018-08-03T00:26:15.939Z,21.70
2018-08-03T00:31:21.498Z,21.59
2018-08-03T00:36:26.155Z,21.45
2018-08-03T00:41:30.791Z,21.37
2018-08-03T00:46:35.586Z,21.41
2018-08-03T00:51:40.204Z,21.25
2018-08-03T00:56:44.839Z,21.28
2018-08-03T01:01:49.647Z,21.13
2018-08-03T01:06:54.313Z,21.13
2018-08-03T01:11:58.912Z,21.04
2018-08-03T01:17:03.632Z,21.01
2018-08-03T01:22:08.248Z,21.08
2018-08-03T01:27:12.855Z,21.10
2018-08-03T01:32:17.661Z,20.94
2018-08-03T01:37:22.435Z,20.84
2018-08-03T01:42:27.291Z,20.71
2018-08-03T01:47:32.021Z,20.61
2018-08-03T01:52:36.684Z,20.61
2018-08-03T01:57:41.374Z,20.63
2018-08-03T02:02:46.064Z,20.64
2018-08-03T02:07:50.766Z,20.55
2018-08-03T02:12:55.480Z,20.49
2018-08-03T02:18:00.171Z,20.45
2018-08-03T02:23:04.891Z,20.40
2018-08-03T02:28:09.680Z,20.28
2018-08-03T02:33:14.408Z,20.32
2018-08-03T02:38:19.046Z,20.33
2018-08-03T02:43:23.725Z,20.12
2018-08-03T02:48:28.422Z,20.06
2018-08-03T02:53:33.153Z,19.91
2018-08-03T02:58:37.866Z,20.08
2018-08-03T03:03:42.523Z,19.95
2018-08-03T03:08:47.183Z,19.94
2018-08-03T03:13:52.304Z,19.76
2018-08-03T03:18:56.956Z,19.84
2018-08-03T03:24:01.722Z,19.79
2018-08-03T03:29:06.383Z,19.69
2018-08-03T03:34:11.004Z,19.63
2018-08-03T03:39:15.728Z,19.56
2018-08-03T03:44:20.546Z,19.54
2018-08-03T03:49:25.439Z,19.71
2018-08-03T03:54:30.147Z,19.65
2018-08-03T03:59:34.836Z,19.95
2018-08-03T04:04:39.613Z,19.81
2018-08-03T04:09:44.259Z,19.93
2018-08-03T04:14:49.038Z,20.04
2018-08-03T04:19:53.725Z,20.10
2018-08-03T04:24:58.355Z,20.72
2018-08-03T04:30:03.234Z,21.21
2018-08-03T04:35:07.986Z,21.54
2018-08-03T04:40:12.950Z,22.12
2018-08-03T04:45:17.665Z,22.84
2018-08-03T04:50:22.408Z,23.92
2018-08-03T04:55:26.718Z,24.66
2018-08-03T05:00:31.408Z,24.22
2018-08-03T05:05:36.055Z,25.08
2018-08-03T05:10:40.780Z,25.32
2018-08-03T05:15:45.615Z,25.11
2018-08-03T05:20:50.351Z,26.04
2018-08-03T05:25:55.096Z,26.11
2018-08-03T05:30:59.415Z,26.72
2018-08-03T05:36:04.180Z,27.49
2018-08-03T05:41:08.943Z,26.98
2018-08-03T05:46:13.685Z,27.57
2018-08-03T05:51:18.449Z,27.19
2018-08-03T05:56:23.198Z,26.86
2018-08-03T06:01:27.907Z,28.05
2018-08-03T06:06:32.597Z,27.33
2018-08-03T06:11:37.360Z,26.92
2018-08-03T06:16:42.003Z,26.29
2018-08-03T06:21:46.699Z,27.83
2018-08-03T06:26:51.327Z,26.71
2018-08-03T06:31:56.205Z,26.44
2018-08-03T06:37:01.025Z,26.94
2018-08-03T06:42:05.840Z,27.57
2018-08-03T06:47:10.590Z,28.02
2018-08-03T06:52:15.412Z,28.26
2018-08-03T06:57:21.986Z,27.77
2018-08-03T07:02:26.566Z,28.41
2018-08-03T07:07:31.259Z,28.41
2018-08-03T07:12:36.026Z,28.81
2018-08-03T07:17:40.703Z,28.91
2018-08-03T07:22:45.501Z,29.69
2018-08-03T07:27:50.294Z,29.64
2018-08-03T07:32:55.028Z,29.80
2018-08-03T07:37:59.663Z,29.98
2018-08-03T07:43:04.347Z,30.11
2018-08-03T07:48:09.299Z,30.21
2018-08-03T07:53:14.089Z,30.43
2018-08-03T07:58:18.790Z,30.31
2018-08-03T08:03:23.481Z,30.65
2018-08-03T08:08:28.328Z,30.58
2018-08-03T08:13:33.008Z,30.85
2018-08-03T08:18:37.780Z,31.17
2018-08-03T08:23:42.517Z,31.16
2018-08-03T08:28:47.364Z,31.36
2018-08-03T08:33:52.150Z,31.64
2018-08-03T08:38:56.886Z,31.98
2018-08-03T08:44:01.603Z,32.10
2018-08-03T08:49:06.665Z,31.68
2018-08-03T08:54:11.348Z,31.84
2018-08-03T08:59:16.001Z,32.84
2018-08-03T09:04:20.750Z,32.95
2018-08-03T09:09:25.477Z,32.58
2018-08-03T09:14:30.282Z,32.78
2018-08-03T09:19:34.964Z,32.62
2018-08-03T09:24:39.743Z,32.31
2018-08-03T09:29:44.449Z,32.24
2018-08-03T09:34:49.159Z,32.68
2018-08-03T09:39:53.872Z,32.88
2018-08-03T09:44:58.695Z,32.84
2018-08-03T09:50:03.533Z,32.49
2018-08-03T09:55:08.327Z,32.81
2018-08-03T10:00:15.791Z,32.87
2018-08-03T10:05:20.522Z,33.67
2018-08-03T10:10:25.248Z,33.55
2018-08-03T10:15:30.011Z,33.73
2018-08-03T10:20:34.926Z,33.47
2018-08-03T10:25:39.799Z,33.72
2018-08-03T10:30:44.437Z,33.89
2018-08-03T10:35:49.093Z,34.08
2018-08-03T10:40:53.860Z,34.04
2018-08-03T10:45:58.604Z,34.17
2018-08-03T10:51:03.374Z,34.59
2018-08-03T10:56:07.745Z,34.54
2018-08-03T11:01:12.402Z,34.52
2018-08-03T11:06:17.067Z,34.04
2018-08-03T11:11:21.735Z,34.93
2018-08-03T11:16:26.560Z,35.05
2018-08-03T11:21:31.363Z,35.07
2018-08-03T11:26:36.451Z,35.62
2018-08-03T11:31:41.169Z,35.11
2018-08-03T11:36:45.746Z,34.97
2018-08-03T11:41:50.467Z,35.03
2018-08-03T11:46:55.292Z,35.72
2018-08-03T11:52:00.057Z,36.00
2018-08-03T11:57:04.833Z,35.47
2018-08-03T12:02:09.620Z,35.74
2018-08-03T12:07:14.397Z,36.08
2018-08-03T12:12:19.076Z,36.12
2018-08-03T12:17:23.772Z,36.19
2018-08-03T12:22:28.540Z,36.75
2018-08-03T12:27:33.162Z,36.52
2018-08-03T12:32:37.906Z,35.91
2018-08-03T12:37:42.637Z,35.43
2018-08-03T12:42:47.424Z,35.35
2018-08-03T12:47:52.173Z,35.82
2018-08-03T12:52:57.009Z,36.29
2018-08-03T12:58:01.751Z,36.40
2018-08-03T13:03:07.175Z,36.40
2018-08-03T13:08:12.052Z,36.34
2018-08-03T13:13:16.698Z,36.02
2018-08-03T13:18:21.312Z,35.77
2018-08-03T13:23:25.965Z,36.00
2018-08-03T13:28:30.716Z,36.63
2018-08-03T13:33:35.404Z,37.03
2018-08-03T13:38:40.168Z,37.03
2018-08-03T13:43:45.246Z,36.87
2018-08-03T13:48:50.581Z,36.95
2018-08-03T13:53:55.273Z,36.79
2018-08-03T13:58:59.901Z,37.53
2018-08-03T14:04:04.598Z,37.87
2018-08-03T14:09:09.303Z,37.46
2018-08-03T14:14:14.695Z,37.54
2018-08-03T14:19:19.361Z,37.78
2018-08-03T14:24:24.088Z,37.74
2018-08-03T14:29:28.824Z,38.14
2018-08-03T14:34:33.671Z,36.81
2018-08-03T14:39:38.452Z,36.79
2018-08-03T14:44:43.240Z,36.85
2018-08-03T14:49:47.890Z,37.36
2018-08-03T14:54:52.498Z,36.95
2018-08-03T14:59:59.133Z,36.97
2018-08-03T15:05:03.908Z,36.66
2018-08-03T15:10:08.675Z,37.53
2018-08-03T15:15:13.587Z,37.72
2018-08-03T15:20:18.317Z,37.51
2018-08-03T15:25:23.010Z,37.02
2018-08-03T15:30:27.695Z,37.15
2018-08-03T15:35:32.351Z,36.94
2018-08-03T15:40:37.091Z,36.35
2018-08-03T15:45:41.887Z,35.89
2018-08-03T15:50:46.606Z,36.20
2018-08-03T15:55:51.357Z,36.01
2018-08-03T16:00:56.151Z,36.12
2018-08-03T16:06:00.519Z,36.65
2018-08-03T16:11:05.266Z,36.69
2018-08-03T16:16:10.255Z,36.70
2018-08-03T16:21:15.077Z,36.40
2018-08-03T16:26:19.952Z,36.60
2018-08-03T16:31:24.628Z,36.37
2018-08-03T16:36:29.401Z,35.66
2018-08-03T16:41:34.107Z,35.62
2018-08-03T16:46:39.077Z,35.51
2018-08-03T16:51:43.743Z,35.56
2018-08-03T16:56:48.462Z,35.53
2018-08-03T17:01:53.418Z,35.27
2018-08-03T17:06:58.020Z,35.10
2018-08-03T17:12:02.810Z,34.66
2018-08-03T17:17:07.955Z,34.11
2018-08-03T17:22:12.824Z,33.89
2018-08-03T17:27:17.623Z,33.42
2018-08-03T17:32:22.367Z,33.33
2018-08-03T17:37:27.046Z,32.99
2018-08-03T17:42:31.817Z,32.59
2018-08-03T17:47:36.756Z,32.65
2018-08-03T17:52:41.823Z,32.22
2018-08-03T17:57:46.980Z,32.09
2018-08-03T18:02:51.454Z,31.71
2018-08-03T18:07:56.159Z,31.46
2018-08-03T18:13:00.848Z,31.21
2018-08-03T18:18:05.662Z,30.85
2018-08-03T18:23:10.399Z,30.58
2018-08-03T18:28:15.059Z,30.25
2018-08-03T18:33:19.680Z,29.94
2018-08-03T18:38:24.396Z,29.68
2018-08-03T18:43:29.118Z,29.45
2018-08-03T18:48:33.735Z,29.15
2018-08-03T18:53:38.402Z,28.89
2018-08-03T18:58:43.295Z,28.55
2018-08-03T19:03:47.945Z,28.29
2018-08-03T19:08:52.734Z,27.94
2018-08-03T19:13:57.381Z,27.75
2018-08-03T19:19:02.060Z,27.63
2018-08-03T19:24:07.221Z,27.49
2018-08-03T19:29:11.928Z,27.20
2018-08-03T19:34:16.632Z,27.14
2018-08-03T19:39:21.531Z,26.95
2018-08-03T19:44:26.306Z,26.82
2018-08-03T19:49:30.996Z,26.76
2018-08-03T19:54:35.728Z,26.65
2018-08-03T19:59:41.160Z,26.59
2018-08-03T20:04:45.817Z,26.41
2018-08-03T20:09:50.639Z,26.26
2018-08-03T20:14:55.457Z,26.17
2018-08-03T20:20:00.217Z,26.22
2018-08-03T20:25:06.091Z,26.09
2018-08-03T20:30:10.828Z,25.86
2018-08-03T20:35:15.624Z,25.67
2018-08-03T20:40:20.397Z,25.61
2018-08-03T20:45:25.232Z,25.46
2018-08-03T20:50:29.988Z,25.64
2018-08-03T20:55:35.030Z,25.43
2018-08-03T21:00:39.647Z,25.27
2018-08-03T21:05:44.331Z,25.11
2018-08-03T21:10:49.004Z,25.03
2018-08-03T21:15:53.887Z,24.87
2018-08-03T21:20:58.598Z,24.86
2018-08-03T21:26:03.358Z,24.78
2018-08-03T21:31:08.151Z,24.85
2018-08-03T21:36:12.930Z,24.69
2018-08-03T21:41:17.640Z,24.66
2018-08-03T21:46:22.446Z,24.55
2018-08-03T21:51:27.201Z,24.47
2018-08-03T21:56:31.990Z,24.30
2018-08-03T22:01:36.730Z,24.13
2018-08-03T22:06:41.488Z,24.05
2018-08-03T22:11:46.168Z,23.97
2018-08-03T22:16:50.920Z,23.85
2018-08-03T22:21:55.653Z,23.77
2018-08-03T22:27:00.317Z,23.77
2018-08-03T22:32:05.083Z,23.67
2018-08-03T22:37:09.806Z,23.77
2018-08-03T22:42:14.583Z,23.61
2018-08-03T22:47:19.283Z,23.46
2018-08-03T22:52:24.225Z,23.30
2018-08-03T22:57:28.885Z,23.25
2018-08-03T23:02:33.681Z,23.26
2018-08-03T23:07:38.423Z,23.24
2018-08-03T23:12:43.128Z,23.13
2018-08-03T23:17:48.602Z,23.03
2018-08-03T23:22:53.361Z,22.96
2018-08-03T23:27:58.320Z,22.93
2018-08-03T23:33:03.273Z,22.84
2018-08-03T23:38:07.967Z,22.77
2018-08-03T23:43:12.809Z,22.77
2018-08-03T23:48:17.722Z,22.76
2018-08-03T23:53:22.396Z,22.63
2018-08-03T23:58:27.178Z,22.50
